Ana Sayfa
METAR-TAF:

METAR-TAF

Havaalanları :

Lanzhou, Çin

Enlem: 36-02N, Boylam: 103-52E, yükseklik: 1518 m

Güncel hava durumu gözlemi

Rapor saat 10:00 UTC de 31 dakika önce yapıldı.
Rüzgar doğu/güneydoğudan 4 kt, doğu ve güney/güneydoğu arasında değişken
Sıcaklık 3°C
Nem 15%
Basınç 1023 hPa
Görüş mesafesi 10 km veya daha fazla
1500 m altında bulut yok ve kümülonimbus yok

METAR: ZLLL 171000Z 11002MPS 080V150 CAVOK 03/M21 Q1023 NOSIG

Saat: 18:31 (10:31 UTC)

Tahmin

Rapor saat 03:03 UTC de 7 saat ve 28 dakika önce yapıldı.
Ayın 17'si saat 06 UTC'den ayın 18'si saat 06 UTC'ye kadar geçerli Tahmin
Rüzgar güneydan 6 kt
Görüş mesafesi 10 km veya daha fazla
1500 m altında bulut yok ve kümülonimbus yok

TAF: ZLLL 170303Z 1706/1806 18003MPS CAVOK TX07/1708Z TNM15/1723Z

4.000'den fazla havaalanı için hava durumu gözlemleri ve tahminleri (METAR ve TAF raporları).

Kullanılabilir istasyonlar harita üzerinde sarı ve kırmızı noktalarla gösterilir.

İstasyonun adını görmek için fareyi noktanın üzerinde gezdirin.

Sonrasında hava gözlem ve tahminlerini görmek için tıklayın.

Haritayı değiştirmek için: yaklaştırmak için siyah artı işaretli yeşil düğmeye ve uzaklaştırmak için de eksi işaretli düğmeye hızla tıklayın; bitişik haritalar için yeşil okları kullanın.


METAR-TAF: